sensor_id;sensor_type;location;lat;lon;timestamp;P1;durP1;ratioP1;P2;durP2;ratioP2
49131;SDS011;35149;51.196;6.204;2022-08-19T00:00:21;10.95;;;9.95;;
49131;SDS011;35149;51.196;6.204;2022-08-19T00:02:48;11.40;;;10.35;;
49131;SDS011;35149;51.196;6.204;2022-08-19T00:05:16;11.75;;;10.52;;
49131;SDS011;35149;51.196;6.204;2022-08-19T00:07:46;11.07;;;9.98;;
49131;SDS011;35149;51.196;6.204;2022-08-19T00:10:19;10.90;;;9.90;;
49131;SDS011;35149;51.196;6.204;2022-08-19T00:12:47;11.93;;;9.77;;
49131;SDS011;35149;51.196;6.204;2022-08-19T00:15:18;10.82;;;9.82;;
49131;SDS011;35149;51.196;6.204;2022-08-19T00:17:46;10.73;;;9.77;;
49131;SDS011;35149;51.196;6.204;2022-08-19T00:20:21;10.35;;;9.38;;
49131;SDS011;35149;51.196;6.204;2022-08-19T00:22:50;10.23;;;9.20;;
49131;SDS011;35149;51.196;6.204;2022-08-19T00:25:18;10.15;;;9.15;;
49131;SDS011;35149;51.196;6.204;2022-08-19T00:27:56;10.75;;;9.77;;
49131;SDS011;35149;51.196;6.204;2022-08-19T00:30:23;11.48;;;10.38;;
49131;SDS011;35149;51.196;6.204;2022-08-19T00:32:49;11.02;;;9.95;;
49131;SDS011;35149;51.196;6.204;2022-08-19T00:35:16;11.32;;;10.32;;
49131;SDS011;35149;51.196;6.204;2022-08-19T00:37:47;11.05;;;9.95;;
49131;SDS011;35149;51.196;6.204;2022-08-19T00:40:17;11.02;;;10.02;;
49131;SDS011;35149;51.196;6.204;2022-08-19T00:42:45;11.93;;;10.82;;
49131;SDS011;35149;51.196;6.204;2022-08-19T00:45:16;11.10;;;10.10;;
49131;SDS011;35149;51.196;6.204;2022-08-19T00:47:46;10.98;;;9.90;;
49131;SDS011;35149;51.196;6.204;2022-08-19T00:50:14;11.77;;;10.55;;
49131;SDS011;35149;51.196;6.204;2022-08-19T00:52:46;11.20;;;10.20;;
49131;SDS011;35149;51.196;6.204;2022-08-19T00:55:21;11.80;;;10.70;;
49131;SDS011;35149;51.196;6.204;2022-08-19T00:57:57;11.50;;;10.40;;
49131;SDS011;35149;51.196;6.204;2022-08-19T01:00:27;11.38;;;10.27;;
49131;SDS011;35149;51.196;6.204;2022-08-19T01:02:55;12.40;;;11.10;;
49131;SDS011;35149;51.196;6.204;2022-08-19T01:05:24;11.75;;;10.57;;
49131;SDS011;35149;51.196;6.204;2022-08-19T01:07:56;11.45;;;10.20;;
49131;SDS011;35149;51.196;6.204;2022-08-19T01:10:31;12.23;;;11.00;;
49131;SDS011;35149;51.196;6.204;2022-08-19T01:13:02;11.77;;;10.30;;
49131;SDS011;35149;51.196;6.204;2022-08-19T01:15:32;13.23;;;11.82;;
49131;SDS011;35149;51.196;6.204;2022-08-19T01:18:07;10.97;;;9.97;;
49131;SDS011;35149;51.196;6.204;2022-08-19T01:20:37;11.73;;;10.38;;
49131;SDS011;35149;51.196;6.204;2022-08-19T01:23:07;11.82;;;10.68;;
49131;SDS011;35149;51.196;6.204;2022-08-19T01:25:36;12.43;;;10.00;;
49131;SDS011;35149;51.196;6.204;2022-08-19T01:28:31;11.45;;;10.48;;
49131;SDS011;35149;51.196;6.204;2022-08-19T01:31:12;11.65;;;10.57;;
49131;SDS011;35149;51.196;6.204;2022-08-19T01:33:54;11.75;;;10.43;;
49131;SDS011;35149;51.196;6.204;2022-08-19T01:36:43;11.23;;;10.20;;
49131;SDS011;35149;51.196;6.204;2022-08-19T01:39:22;11.65;;;10.60;;
49131;SDS011;35149;51.196;6.204;2022-08-19T01:41:50;12.38;;;11.23;;
49131;SDS011;35149;51.196;6.204;2022-08-19T01:44:20;12.50;;;11.32;;
49131;SDS011;35149;51.196;6.204;2022-08-19T01:46:50;13.07;;;11.88;;
49131;SDS011;35149;51.196;6.204;2022-08-19T01:49:18;15.32;;;12.02;;
49131;SDS011;35149;51.196;6.204;2022-08-19T01:51:47;14.15;;;12.65;;
49131;SDS011;35149;51.196;6.204;2022-08-19T01:54:21;16.23;;;12.75;;
49131;SDS011;35149;51.196;6.204;2022-08-19T01:56:55;14.13;;;12.70;;
49131;SDS011;35149;51.196;6.204;2022-08-19T01:59:29;12.65;;;11.43;;
49131;SDS011;35149;51.196;6.204;2022-08-19T02:01:57;13.63;;;12.32;;
49131;SDS011;35149;51.196;6.204;2022-08-19T02:04:26;13.55;;;12.15;;
49131;SDS011;35149;51.196;6.204;2022-08-19T02:06:53;13.68;;;12.38;;
49131;SDS011;35149;51.196;6.204;2022-08-19T02:09:23;15.55;;;13.63;;
49131;SDS011;35149;51.196;6.204;2022-08-19T02:11:49;13.75;;;12.40;;
49131;SDS011;35149;51.196;6.204;2022-08-19T02:14:16;14.38;;;12.85;;
49131;SDS011;35149;51.196;6.204;2022-08-19T02:16:45;14.98;;;13.48;;
49131;SDS011;35149;51.196;6.204;2022-08-19T02:19:14;16.75;;;14.93;;
49131;SDS011;35149;51.196;6.204;2022-08-19T02:21:44;16.35;;;14.70;;
49131;SDS011;35149;51.196;6.204;2022-08-19T02:24:11;18.50;;;16.60;;
49131;SDS011;35149;51.196;6.204;2022-08-19T02:26:38;21.13;;;17.75;;
49131;SDS011;35149;51.196;6.204;2022-08-19T02:29:09;19.73;;;16.92;;
49131;SDS011;35149;51.196;6.204;2022-08-19T02:31:38;23.42;;;20.75;;
49131;SDS011;35149;51.196;6.204;2022-08-19T02:34:06;28.10;;;23.65;;
49131;SDS011;35149;51.196;6.204;2022-08-19T02:36:36;26.45;;;23.25;;
49131;SDS011;35149;51.196;6.204;2022-08-19T02:39:12;23.77;;;21.33;;
49131;SDS011;35149;51.196;6.204;2022-08-19T02:41:41;28.88;;;25.77;;
49131;SDS011;35149;51.196;6.204;2022-08-19T02:44:08;30.48;;;25.92;;
49131;SDS011;35149;51.196;6.204;2022-08-19T02:46:56;29.70;;;25.48;;
49131;SDS011;35149;51.196;6.204;2022-08-19T02:49:23;31.73;;;26.77;;
49131;SDS011;35149;51.196;6.204;2022-08-19T02:52:00;27.55;;;24.38;;
49131;SDS011;35149;51.196;6.204;2022-08-19T02:54:27;31.20;;;26.95;;
49131;SDS011;35149;51.196;6.204;2022-08-19T02:56:56;29.42;;;26.25;;
49131;SDS011;35149;51.196;6.204;2022-08-19T02:59:25;29.00;;;25.85;;
49131;SDS011;35149;51.196;6.204;2022-08-19T03:01:55;29.10;;;26.00;;
49131;SDS011;35149;51.196;6.204;2022-08-19T03:04:22;29.52;;;26.45;;
49131;SDS011;35149;51.196;6.204;2022-08-19T03:06:52;30.17;;;25.20;;
49131;SDS011;35149;51.196;6.204;2022-08-19T03:09:36;30.90;;;26.63;;
49131;SDS011;35149;51.196;6.204;2022-08-19T03:12:03;28.38;;;25.27;;
49131;SDS011;35149;51.196;6.204;2022-08-19T03:14:33;30.80;;;26.60;;
49131;SDS011;35149;51.196;6.204;2022-08-19T03:17:05;29.67;;;25.73;;
49131;SDS011;35149;51.196;6.204;2022-08-19T03:19:32;27.75;;;24.77;;
49131;SDS011;35149;51.196;6.204;2022-08-19T03:22:06;27.27;;;23.90;;
49131;SDS011;35149;51.196;6.204;2022-08-19T03:24:35;28.30;;;23.15;;
49131;SDS011;35149;51.196;6.204;2022-08-19T03:27:04;28.20;;;25.17;;
49131;SDS011;35149;51.196;6.204;2022-08-19T03:29:31;29.42;;;25.38;;
49131;SDS011;35149;51.196;6.204;2022-08-19T03:32:08;29.52;;;25.80;;
49131;SDS011;35149;51.196;6.204;2022-08-19T03:34:55;27.95;;;23.38;;
49131;SDS011;35149;51.196;6.204;2022-08-19T03:37:23;27.95;;;23.38;;
49131;SDS011;35149;51.196;6.204;2022-08-19T03:39:51;29.23;;;25.55;;
49131;SDS011;35149;51.196;6.204;2022-08-19T03:42:20;28.02;;;24.42;;
49131;SDS011;35149;51.196;6.204;2022-08-19T03:45:07;27.20;;;22.73;;
49131;SDS011;35149;51.196;6.204;2022-08-19T03:47:39;30.92;;;26.77;;
49131;SDS011;35149;51.196;6.204;2022-08-19T03:50:06;29.85;;;25.95;;
49131;SDS011;35149;51.196;6.204;2022-08-19T03:52:32;30.73;;;27.02;;
49131;SDS011;35149;51.196;6.204;2022-08-19T03:55:00;30.98;;;27.13;;
49131;SDS011;35149;51.196;6.204;2022-08-19T03:57:30;33.05;;;26.75;;
49131;SDS011;35149;51.196;6.204;2022-08-19T03:59:59;31.17;;;27.08;;
49131;SDS011;35149;51.196;6.204;2022-08-19T04:02:39;30.23;;;26.77;;
49131;SDS011;35149;51.196;6.204;2022-08-19T04:07:53;29.92;;;24.52;;
49131;SDS011;35149;51.196;6.204;2022-08-19T04:10:20;30.92;;;27.27;;
49131;SDS011;35149;51.196;6.204;2022-08-19T04:12:48;32.15;;;26.85;;
49131;SDS011;35149;51.196;6.204;2022-08-19T04:15:16;33.88;;;27.20;;
49131;SDS011;35149;51.196;6.204;2022-08-19T04:17:45;34.67;;;27.10;;
49131;SDS011;35149;51.196;6.204;2022-08-19T04:20:12;29.98;;;25.45;;
49131;SDS011;35149;51.196;6.204;2022-08-19T04:22:43;29.98;;;24.75;;
49131;SDS011;35149;51.196;6.204;2022-08-19T04:25:15;31.15;;;26.90;;
49131;SDS011;35149;51.196;6.204;2022-08-19T04:27:44;31.43;;;26.63;;
49131;SDS011;35149;51.196;6.204;2022-08-19T04:30:13;29.15;;;25.83;;
49131;SDS011;35149;51.196;6.204;2022-08-19T04:32:40;30.98;;;25.42;;
49131;SDS011;35149;51.196;6.204;2022-08-19T04:35:09;30.67;;;25.50;;
49131;SDS011;35149;51.196;6.204;2022-08-19T04:37:44;33.58;;;25.92;;
49131;SDS011;35149;51.196;6.204;2022-08-19T04:40:11;30.42;;;25.25;;
49131;SDS011;35149;51.196;6.204;2022-08-19T04:42:56;29.67;;;23.65;;
49131;SDS011;35149;51.196;6.204;2022-08-19T04:45:23;27.65;;;24.10;;
49131;SDS011;35149;51.196;6.204;2022-08-19T04:47:54;28.08;;;24.45;;
49131;SDS011;35149;51.196;6.204;2022-08-19T04:50:25;29.58;;;24.52;;
49131;SDS011;35149;51.196;6.204;2022-08-19T04:52:52;28.25;;;23.60;;
49131;SDS011;35149;51.196;6.204;2022-08-19T04:55:21;27.05;;;23.17;;
49131;SDS011;35149;51.196;6.204;2022-08-19T04:57:48;29.88;;;24.05;;
49131;SDS011;35149;51.196;6.204;2022-08-19T05:00:15;27.30;;;23.33;;
49131;SDS011;35149;51.196;6.204;2022-08-19T05:02:41;28.38;;;23.25;;
49131;SDS011;35149;51.196;6.204;2022-08-19T05:05:09;25.92;;;21.73;;
49131;SDS011;35149;51.196;6.204;2022-08-19T05:07:36;29.00;;;22.65;;
49131;SDS011;35149;51.196;6.204;2022-08-19T05:10:04;26.67;;;22.77;;
49131;SDS011;35149;51.196;6.204;2022-08-19T05:12:32;26.08;;;21.38;;
49131;SDS011;35149;51.196;6.204;2022-08-19T05:14:59;26.20;;;21.77;;
49131;SDS011;35149;51.196;6.204;2022-08-19T05:17:27;27.38;;;23.45;;
49131;SDS011;35149;51.196;6.204;2022-08-19T05:20:00;29.40;;;21.90;;
49131;SDS011;35149;51.196;6.204;2022-08-19T05:22:46;27.35;;;22.20;;
49131;SDS011;35149;51.196;6.204;2022-08-19T05:25:15;26.83;;;21.98;;
49131;SDS011;35149;51.196;6.204;2022-08-19T05:27:45;26.42;;;23.08;;
49131;SDS011;35149;51.196;6.204;2022-08-19T05:30:12;28.38;;;23.52;;
49131;SDS011;35149;51.196;6.204;2022-08-19T05:32:39;31.88;;;26.02;;
49131;SDS011;35149;51.196;6.204;2022-08-19T05:35:07;28.35;;;24.45;;
49131;SDS011;35149;51.196;6.204;2022-08-19T05:37:34;32.05;;;25.90;;
49131;SDS011;35149;51.196;6.204;2022-08-19T05:40:01;32.47;;;25.67;;
49131;SDS011;35149;51.196;6.204;2022-08-19T05:42:29;29.52;;;25.10;;
49131;SDS011;35149;51.196;6.204;2022-08-19T05:44:56;30.65;;;25.90;;
49131;SDS011;35149;51.196;6.204;2022-08-19T05:47:23;32.63;;;24.90;;
49131;SDS011;35149;51.196;6.204;2022-08-19T05:49:50;33.78;;;24.92;;
49131;SDS011;35149;51.196;6.204;2022-08-19T05:52:17;33.95;;;26.15;;
49131;SDS011;35149;51.196;6.204;2022-08-19T05:54:45;31.98;;;25.77;;
49131;SDS011;35149;51.196;6.204;2022-08-19T05:57:17;30.23;;;25.48;;
49131;SDS011;35149;51.196;6.204;2022-08-19T05:59:44;31.90;;;26.60;;
49131;SDS011;35149;51.196;6.204;2022-08-19T06:02:18;32.10;;;26.50;;
49131;SDS011;35149;51.196;6.204;2022-08-19T06:04:45;33.33;;;27.08;;
49131;SDS011;35149;51.196;6.204;2022-08-19T06:07:12;34.90;;;27.17;;
49131;SDS011;35149;51.196;6.204;2022-08-19T06:09:39;35.22;;;27.38;;
49131;SDS011;35149;51.196;6.204;2022-08-19T06:12:29;33.30;;;25.67;;
49131;SDS011;35149;51.196;6.204;2022-08-19T06:15:02;33.67;;;28.45;;
49131;SDS011;35149;51.196;6.204;2022-08-19T06:17:31;34.85;;;28.10;;
49131;SDS011;35149;51.196;6.204;2022-08-19T06:20:01;37.63;;;29.48;;
49131;SDS011;35149;51.196;6.204;2022-08-19T06:22:30;38.55;;;29.17;;
49131;SDS011;35149;51.196;6.204;2022-08-19T06:24:56;35.20;;;27.88;;
49131;SDS011;35149;51.196;6.204;2022-08-19T06:27:23;38.53;;;29.15;;
49131;SDS011;35149;51.196;6.204;2022-08-19T06:29:50;40.85;;;29.63;;
49131;SDS011;35149;51.196;6.204;2022-08-19T06:32:17;42.30;;;29.50;;
49131;SDS011;35149;51.196;6.204;2022-08-19T06:34:45;44.28;;;30.23;;
49131;SDS011;35149;51.196;6.204;2022-08-19T06:37:12;40.33;;;30.65;;
49131;SDS011;35149;51.196;6.204;2022-08-19T06:39:40;39.72;;;29.75;;
49131;SDS011;35149;51.196;6.204;2022-08-19T06:42:09;41.55;;;30.17;;
49131;SDS011;35149;51.196;6.204;2022-08-19T06:44:39;39.10;;;29.20;;
49131;SDS011;35149;51.196;6.204;2022-08-19T06:47:14;38.47;;;29.15;;
49131;SDS011;35149;51.196;6.204;2022-08-19T06:49:57;42.88;;;31.60;;
49131;SDS011;35149;51.196;6.204;2022-08-19T06:52:31;43.60;;;30.00;;
49131;SDS011;35149;51.196;6.204;2022-08-19T06:55:02;41.75;;;30.17;;
49131;SDS011;35149;51.196;6.204;2022-08-19T06:57:32;38.20;;;29.85;;
49131;SDS011;35149;51.196;6.204;2022-08-19T06:59:59;40.25;;;30.13;;
49131;SDS011;35149;51.196;6.204;2022-08-19T07:02:28;40.88;;;30.92;;
49131;SDS011;35149;51.196;6.204;2022-08-19T07:04:55;35.72;;;27.15;;
49131;SDS011;35149;51.196;6.204;2022-08-19T07:07:24;37.63;;;29.02;;
49131;SDS011;35149;51.196;6.204;2022-08-19T07:09:54;41.33;;;29.40;;
49131;SDS011;35149;51.196;6.204;2022-08-19T07:12:28;41.40;;;28.73;;
49131;SDS011;35149;51.196;6.204;2022-08-19T07:15:00;38.88;;;29.10;;
49131;SDS011;35149;51.196;6.204;2022-08-19T07:17:29;41.58;;;29.02;;
49131;SDS011;35149;51.196;6.204;2022-08-19T07:19:56;41.60;;;30.05;;
49131;SDS011;35149;51.196;6.204;2022-08-19T07:22:30;42.40;;;30.35;;
49131;SDS011;35149;51.196;6.204;2022-08-19T07:24:57;40.22;;;29.38;;
49131;SDS011;35149;51.196;6.204;2022-08-19T07:27:24;40.40;;;30.50;;
49131;SDS011;35149;51.196;6.204;2022-08-19T07:29:52;40.65;;;29.50;;
49131;SDS011;35149;51.196;6.204;2022-08-19T07:32:21;38.88;;;29.23;;
49131;SDS011;35149;51.196;6.204;2022-08-19T07:34:48;42.88;;;29.08;;
49131;SDS011;35149;51.196;6.204;2022-08-19T07:37:15;38.85;;;28.15;;
49131;SDS011;35149;51.196;6.204;2022-08-19T07:39:42;39.50;;;28.90;;
49131;SDS011;35149;51.196;6.204;2022-08-19T07:42:10;40.72;;;30.45;;
49131;SDS011;35149;51.196;6.204;2022-08-19T07:44:41;46.33;;;31.42;;
49131;SDS011;35149;51.196;6.204;2022-08-19T07:47:15;38.97;;;30.02;;
49131;SDS011;35149;51.196;6.204;2022-08-19T07:50:03;39.40;;;28.85;;
49131;SDS011;35149;51.196;6.204;2022-08-19T07:52:33;38.60;;;27.90;;
49131;SDS011;35149;51.196;6.204;2022-08-19T07:55:00;38.30;;;28.45;;
49131;SDS011;35149;51.196;6.204;2022-08-19T07:57:29;35.95;;;25.13;;
49131;SDS011;35149;51.196;6.204;2022-08-19T07:59:56;33.58;;;25.05;;
49131;SDS011;35149;51.196;6.204;2022-08-19T08:02:23;27.45;;;20.40;;
49131;SDS011;35149;51.196;6.204;2022-08-19T08:04:50;30.60;;;20.75;;
49131;SDS011;35149;51.196;6.204;2022-08-19T08:07:35;25.55;;;19.33;;
49131;SDS011;35149;51.196;6.204;2022-08-19T08:10:21;24.05;;;17.83;;
49131;SDS011;35149;51.196;6.204;2022-08-19T08:12:50;24.35;;;17.10;;
49131;SDS011;35149;51.196;6.204;2022-08-19T08:15:35;20.05;;;16.08;;
49131;SDS011;35149;51.196;6.204;2022-08-19T08:18:08;19.85;;;15.15;;
49131;SDS011;35149;51.196;6.204;2022-08-19T08:20:35;19.67;;;15.02;;
49131;SDS011;35149;51.196;6.204;2022-08-19T08:23:02;21.23;;;15.55;;
49131;SDS011;35149;51.196;6.204;2022-08-19T08:25:48;24.77;;;16.17;;
49131;SDS011;35149;51.196;6.204;2022-08-19T08:28:16;22.95;;;17.15;;
49131;SDS011;35149;51.196;6.204;2022-08-19T08:30:44;19.33;;;14.43;;
49131;SDS011;35149;51.196;6.204;2022-08-19T08:33:17;18.27;;;14.38;;
49131;SDS011;35149;51.196;6.204;2022-08-19T08:35:59;15.85;;;13.18;;
49131;SDS011;35149;51.196;6.204;2022-08-19T08:38:33;17.48;;;12.70;;
49131;SDS011;35149;51.196;6.204;2022-08-19T08:43:47;20.30;;;13.73;;
49131;SDS011;35149;51.196;6.204;2022-08-19T08:46:19;19.97;;;13.03;;
49131;SDS011;35149;51.196;6.204;2022-08-19T08:51:48;14.65;;;11.18;;
49131;SDS011;35149;51.196;6.204;2022-08-19T08:54:28;16.35;;;11.27;;
49131;SDS011;35149;51.196;6.204;2022-08-19T08:57:29;13.80;;;10.75;;
49131;SDS011;35149;51.196;6.204;2022-08-19T09:00:10;12.13;;;8.95;;
49131;SDS011;35149;51.196;6.204;2022-08-19T09:02:43;10.15;;;9.00;;
49131;SDS011;35149;51.196;6.204;2022-08-19T09:05:16;12.82;;;8.57;;
49131;SDS011;35149;51.196;6.204;2022-08-19T09:07:57;13.77;;;8.35;;
49131;SDS011;35149;51.196;6.204;2022-08-19T09:10:49;14.15;;;10.02;;
49131;SDS011;35149;51.196;6.204;2022-08-19T09:13:25;14.20;;;9.52;;
49131;SDS011;35149;51.196;6.204;2022-08-19T09:16:06;12.90;;;9.93;;
49131;SDS011;35149;51.196;6.204;2022-08-19T09:18:41;15.60;;;10.55;;
49131;SDS011;35149;51.196;6.204;2022-08-19T09:21:12;14.20;;;10.07;;
49131;SDS011;35149;51.196;6.204;2022-08-19T09:23:40;17.50;;;11.90;;
49131;SDS011;35149;51.196;6.204;2022-08-19T09:26:12;17.65;;;11.73;;
49131;SDS011;35149;51.196;6.204;2022-08-19T09:28:43;15.98;;;13.45;;
49131;SDS011;35149;51.196;6.204;2022-08-19T09:31:15;15.32;;;13.27;;
49131;SDS011;35149;51.196;6.204;2022-08-19T09:33:44;19.98;;;13.88;;
49131;SDS011;35149;51.196;6.204;2022-08-19T09:36:12;18.63;;;14.40;;
49131;SDS011;35149;51.196;6.204;2022-08-19T09:39:00;19.58;;;14.38;;
49131;SDS011;35149;51.196;6.204;2022-08-19T09:41:27;17.05;;;14.00;;
49131;SDS011;35149;51.196;6.204;2022-08-19T09:43:56;19.75;;;15.15;;
49131;SDS011;35149;51.196;6.204;2022-08-19T09:46:26;18.45;;;13.90;;
49131;SDS011;35149;51.196;6.204;2022-08-19T09:48:56;17.02;;;13.52;;
49131;SDS011;35149;51.196;6.204;2022-08-19T09:51:31;20.50;;;16.75;;
49131;SDS011;35149;51.196;6.204;2022-08-19T09:54:01;19.20;;;14.18;;
49131;SDS011;35149;51.196;6.204;2022-08-19T09:56:30;18.63;;;14.38;;
49131;SDS011;35149;51.196;6.204;2022-08-19T09:59:01;18.52;;;14.88;;
49131;SDS011;35149;51.196;6.204;2022-08-19T10:01:30;18.33;;;15.35;;
49131;SDS011;35149;51.196;6.204;2022-08-19T10:03:58;23.90;;;15.50;;
49131;SDS011;35149;51.196;6.204;2022-08-19T10:06:26;15.60;;;13.90;;
49131;SDS011;35149;51.196;6.204;2022-08-19T10:09:12;19.23;;;15.40;;
49131;SDS011;35149;51.196;6.204;2022-08-19T10:11:40;19.55;;;14.48;;
49131;SDS011;35149;51.196;6.204;2022-08-19T10:14:19;15.68;;;13.98;;
49131;SDS011;35149;51.196;6.204;2022-08-19T10:16:48;17.88;;;14.25;;
49131;SDS011;35149;51.196;6.204;2022-08-19T10:19:18;16.98;;;14.07;;
49131;SDS011;35149;51.196;6.204;2022-08-19T10:21:51;17.63;;;13.38;;
49131;SDS011;35149;51.196;6.204;2022-08-19T10:24:25;16.35;;;14.02;;
49131;SDS011;35149;51.196;6.204;2022-08-19T10:26:53;15.38;;;12.77;;
49131;SDS011;35149;51.196;6.204;2022-08-19T10:29:24;15.27;;;13.30;;
49131;SDS011;35149;51.196;6.204;2022-08-19T10:32:01;16.48;;;12.52;;
49131;SDS011;35149;51.196;6.204;2022-08-19T10:34:35;13.48;;;12.07;;
49131;SDS011;35149;51.196;6.204;2022-08-19T10:37:14;13.02;;;10.82;;
49131;SDS011;35149;51.196;6.204;2022-08-19T10:39:56;14.13;;;11.48;;
49131;SDS011;35149;51.196;6.204;2022-08-19T10:42:23;16.45;;;11.32;;
49131;SDS011;35149;51.196;6.204;2022-08-19T10:44:50;13.50;;;12.10;;
49131;SDS011;35149;51.196;6.204;2022-08-19T10:47:17;10.90;;;9.77;;
49131;SDS011;35149;51.196;6.204;2022-08-19T10:49:51;12.18;;;10.77;;
49131;SDS011;35149;51.196;6.204;2022-08-19T10:52:41;10.52;;;9.43;;
49131;SDS011;35149;51.196;6.204;2022-08-19T10:55:16;10.65;;;9.27;;
49131;SDS011;35149;51.196;6.204;2022-08-19T10:58:10;14.05;;;10.82;;
49131;SDS011;35149;51.196;6.204;2022-08-19T11:00:43;12.90;;;10.40;;
49131;SDS011;35149;51.196;6.204;2022-08-19T11:03:19;13.25;;;10.10;;
49131;SDS011;35149;51.196;6.204;2022-08-19T11:05:46;9.82;;;8.82;;
49131;SDS011;35149;51.196;6.204;2022-08-19T11:08:14;12.85;;;10.13;;
49131;SDS011;35149;51.196;6.204;2022-08-19T11:10:49;10.43;;;9.07;;
49131;SDS011;35149;51.196;6.204;2022-08-19T11:13:19;10.32;;;8.77;;
49131;SDS011;35149;51.196;6.204;2022-08-19T11:15:46;12.27;;;9.93;;
49131;SDS011;35149;51.196;6.204;2022-08-19T11:18:13;9.35;;;8.45;;
49131;SDS011;35149;51.196;6.204;2022-08-19T11:20:40;8.90;;;7.90;;
49131;SDS011;35149;51.196;6.204;2022-08-19T11:23:07;11.02;;;7.82;;
49131;SDS011;35149;51.196;6.204;2022-08-19T11:25:34;8.20;;;7.40;;
49131;SDS011;35149;51.196;6.204;2022-08-19T11:28:01;10.43;;;7.78;;
49131;SDS011;35149;51.196;6.204;2022-08-19T11:30:28;7.75;;;6.90;;
49131;SDS011;35149;51.196;6.204;2022-08-19T11:32:57;8.38;;;7.38;;
49131;SDS011;35149;51.196;6.204;2022-08-19T11:35:23;9.65;;;8.02;;
49131;SDS011;35149;51.196;6.204;2022-08-19T11:37:50;9.30;;;7.03;;
49131;SDS011;35149;51.196;6.204;2022-08-19T11:40:17;8.75;;;7.72;;
49131;SDS011;35149;51.196;6.204;2022-08-19T11:42:44;8.15;;;6.53;;
49131;SDS011;35149;51.196;6.204;2022-08-19T11:45:23;6.60;;;5.82;;
49131;SDS011;35149;51.196;6.204;2022-08-19T11:47:51;10.73;;;6.70;;
49131;SDS011;35149;51.196;6.204;2022-08-19T11:50:19;6.35;;;5.75;;
49131;SDS011;35149;51.196;6.204;2022-08-19T11:52:46;15.63;;;5.55;;
49131;SDS011;35149;51.196;6.204;2022-08-19T11:55:15;5.15;;;4.65;;
49131;SDS011;35149;51.196;6.204;2022-08-19T11:57:42;5.80;;;4.53;;
49131;SDS011;35149;51.196;6.204;2022-08-19T12:00:09;7.20;;;5.32;;
49131;SDS011;35149;51.196;6.204;2022-08-19T12:02:40;5.57;;;4.78;;
49131;SDS011;35149;51.196;6.204;2022-08-19T12:05:07;6.80;;;5.32;;
49131;SDS011;35149;51.196;6.204;2022-08-19T12:07:38;6.60;;;5.38;;
49131;SDS011;35149;51.196;6.204;2022-08-19T12:10:05;5.43;;;4.80;;
49131;SDS011;35149;51.196;6.204;2022-08-19T12:12:33;5.55;;;3.83;;
49131;SDS011;35149;51.196;6.204;2022-08-19T12:15:00;5.05;;;4.47;;
49131;SDS011;35149;51.196;6.204;2022-08-19T12:17:28;5.03;;;4.05;;
49131;SDS011;35149;51.196;6.204;2022-08-19T12:19:56;4.90;;;4.38;;
49131;SDS011;35149;51.196;6.204;2022-08-19T12:22:23;5.15;;;3.80;;
49131;SDS011;35149;51.196;6.204;2022-08-19T12:24:50;3.55;;;3.22;;
49131;SDS011;35149;51.196;6.204;2022-08-19T12:27:19;8.30;;;5.13;;
49131;SDS011;35149;51.196;6.204;2022-08-19T12:30:06;4.78;;;4.15;;
49131;SDS011;35149;51.196;6.204;2022-08-19T12:32:35;5.85;;;3.67;;
49131;SDS011;35149;51.196;6.204;2022-08-19T12:35:05;4.75;;;3.53;;
49131;SDS011;35149;51.196;6.204;2022-08-19T12:37:34;4.53;;;3.63;;
49131;SDS011;35149;51.196;6.204;2022-08-19T12:40:01;3.60;;;3.30;;
49131;SDS011;35149;51.196;6.204;2022-08-19T12:42:29;3.92;;;3.45;;
49131;SDS011;35149;51.196;6.204;2022-08-19T12:44:56;4.15;;;3.40;;
49131;SDS011;35149;51.196;6.204;2022-08-19T12:47:23;6.55;;;3.47;;
49131;SDS011;35149;51.196;6.204;2022-08-19T12:49:59;3.22;;;2.63;;
49131;SDS011;35149;51.196;6.204;2022-08-19T12:52:32;3.53;;;3.20;;
49131;SDS011;35149;51.196;6.204;2022-08-19T12:54:59;6.63;;;4.35;;
49131;SDS011;35149;51.196;6.204;2022-08-19T12:57:28;3.25;;;2.92;;
49131;SDS011;35149;51.196;6.204;2022-08-19T12:59:57;3.95;;;3.17;;
49131;SDS011;35149;51.196;6.204;2022-08-19T13:02:30;3.42;;;2.65;;
49131;SDS011;35149;51.196;6.204;2022-08-19T13:05:04;6.05;;;3.20;;
49131;SDS011;35149;51.196;6.204;2022-08-19T13:07:38;4.03;;;2.92;;
49131;SDS011;35149;51.196;6.204;2022-08-19T13:10:08;4.60;;;4.03;;
49131;SDS011;35149;51.196;6.204;2022-08-19T13:12:38;4.65;;;3.42;;
49131;SDS011;35149;51.196;6.204;2022-08-19T13:15:07;6.30;;;3.50;;
49131;SDS011;35149;51.196;6.204;2022-08-19T13:17:37;4.00;;;3.50;;
49131;SDS011;35149;51.196;6.204;2022-08-19T13:20:05;4.07;;;2.97;;
49131;SDS011;35149;51.196;6.204;2022-08-19T13:22:34;3.30;;;3.00;;
49131;SDS011;35149;51.196;6.204;2022-08-19T13:25:03;5.68;;;3.08;;
49131;SDS011;35149;51.196;6.204;2022-08-19T13:27:31;3.80;;;3.50;;
49131;SDS011;35149;51.196;6.204;2022-08-19T13:29:59;5.03;;;3.85;;
49131;SDS011;35149;51.196;6.204;2022-08-19T13:32:52;4.63;;;3.30;;
49131;SDS011;35149;51.196;6.204;2022-08-19T13:35:49;5.60;;;2.72;;
49131;SDS011;35149;51.196;6.204;2022-08-19T13:38:20;5.47;;;3.33;;
49131;SDS011;35149;51.196;6.204;2022-08-19T13:40:47;3.33;;;3.03;;
49131;SDS011;35149;51.196;6.204;2022-08-19T13:43:19;6.07;;;2.33;;
49131;SDS011;35149;51.196;6.204;2022-08-19T13:45:52;6.38;;;2.90;;
49131;SDS011;35149;51.196;6.204;2022-08-19T13:48:26;6.07;;;2.75;;
49131;SDS011;35149;51.196;6.204;2022-08-19T13:50:55;2.63;;;2.20;;
49131;SDS011;35149;51.196;6.204;2022-08-19T13:53:22;3.58;;;3.17;;
49131;SDS011;35149;51.196;6.204;2022-08-19T13:55:51;2.95;;;2.60;;
49131;SDS011;35149;51.196;6.204;2022-08-19T13:58:22;2.60;;;2.35;;
49131;SDS011;35149;51.196;6.204;2022-08-19T14:03:22;3.85;;;2.47;;
49131;SDS011;35149;51.196;6.204;2022-08-19T14:05:51;2.72;;;2.53;;
49131;SDS011;35149;51.196;6.204;2022-08-19T14:08:20;16.50;;;3.65;;
49131;SDS011;35149;51.196;6.204;2022-08-19T14:10:49;4.70;;;3.03;;
49131;SDS011;35149;51.196;6.204;2022-08-19T14:13:19;3.53;;;3.22;;
49131;SDS011;35149;51.196;6.204;2022-08-19T14:15:50;3.67;;;3.38;;
49131;SDS011;35149;51.196;6.204;2022-08-19T14:18:20;3.65;;;3.35;;
49131;SDS011;35149;51.196;6.204;2022-08-19T14:20:51;4.45;;;3.63;;
49131;SDS011;35149;51.196;6.204;2022-08-19T14:23:18;4.35;;;3.78;;
49131;SDS011;35149;51.196;6.204;2022-08-19T14:25:46;5.05;;;3.90;;
49131;SDS011;35149;51.196;6.204;2022-08-19T14:28:12;4.20;;;3.55;;
49131;SDS011;35149;51.196;6.204;2022-08-19T14:30:39;3.53;;;3.25;;
49131;SDS011;35149;51.196;6.204;2022-08-19T14:33:06;4.47;;;3.13;;
49131;SDS011;35149;51.196;6.204;2022-08-19T14:35:34;3.22;;;2.60;;
49131;SDS011;35149;51.196;6.204;2022-08-19T14:38:05;4.45;;;2.80;;
49131;SDS011;35149;51.196;6.204;2022-08-19T14:40:40;2.30;;;2.10;;
49131;SDS011;35149;51.196;6.204;2022-08-19T14:43:08;2.10;;;1.90;;
49131;SDS011;35149;51.196;6.204;2022-08-19T14:45:37;1.98;;;1.80;;
49131;SDS011;35149;51.196;6.204;2022-08-19T14:48:06;1.80;;;1.70;;
49131;SDS011;35149;51.196;6.204;2022-08-19T14:50:44;2.28;;;2.08;;
49131;SDS011;35149;51.196;6.204;2022-08-19T14:53:11;2.83;;;1.90;;
49131;SDS011;35149;51.196;6.204;2022-08-19T14:55:45;2.65;;;2.45;;
49131;SDS011;35149;51.196;6.204;2022-08-19T14:58:13;2.28;;;2.10;;
49131;SDS011;35149;51.196;6.204;2022-08-19T15:00:56;1.80;;;1.70;;